createdAt,value
2018-09-22T00:01:36.447Z,2.63
2018-09-22T00:04:04.854Z,2.73
2018-09-22T00:06:32.995Z,2.70
2018-09-22T00:09:01.135Z,3.10
2018-09-22T00:11:29.294Z,2.80
2018-09-22T00:13:57.431Z,3.03
2018-09-22T00:16:25.625Z,3.10
2018-09-22T00:18:54.026Z,2.80
2018-09-22T00:21:22.974Z,2.67
2018-09-22T00:23:52.148Z,2.73
2018-09-22T00:26:20.380Z,2.83
2018-09-22T00:28:48.547Z,2.73
2018-09-22T00:31:16.663Z,2.83
2018-09-22T00:33:44.883Z,2.60
2018-09-22T00:36:14.337Z,2.67
2018-09-22T00:38:42.643Z,3.63
2018-09-22T00:41:10.905Z,3.07
2018-09-22T00:43:39.123Z,2.80
2018-09-22T00:46:07.438Z,2.93
2018-09-22T00:48:35.629Z,3.30
2018-09-22T00:51:03.833Z,3.20
2018-09-22T00:53:31.888Z,2.83
2018-09-22T00:56:00.032Z,3.43
2018-09-22T00:58:28.194Z,3.13
2018-09-22T01:00:56.382Z,2.60
2018-09-22T01:03:24.495Z,2.60
2018-09-22T01:05:52.657Z,3.03
2018-09-22T01:08:20.770Z,3.23
2018-09-22T01:10:48.942Z,2.73
2018-09-22T01:13:17.077Z,3.40
2018-09-22T01:15:45.291Z,2.90
2018-09-22T01:18:13.489Z,3.10
2018-09-22T01:20:41.635Z,3.10
2018-09-22T01:23:09.852Z,3.27
2018-09-22T01:25:37.993Z,3.43
2018-09-22T01:28:06.141Z,3.77
2018-09-22T01:30:34.535Z,3.53
2018-09-22T01:33:02.680Z,3.87
2018-09-22T01:35:30.783Z,3.53
2018-09-22T01:37:58.861Z,3.37
2018-09-22T01:40:27.056Z,4.00
2018-09-22T01:42:56.211Z,3.37
2018-09-22T01:45:24.473Z,3.53
2018-09-22T01:47:52.724Z,3.73
2018-09-22T01:50:20.877Z,3.23
2018-09-22T01:52:49.038Z,3.40
2018-09-22T01:55:17.215Z,3.03
2018-09-22T01:57:45.373Z,2.93
2018-09-22T02:00:13.586Z,3.93
2018-09-22T02:02:41.787Z,3.87
2018-09-22T02:05:09.957Z,3.90
2018-09-22T02:07:38.064Z,3.30
2018-09-22T02:10:06.464Z,4.10
2018-09-22T02:12:34.604Z,3.37
2018-09-22T02:15:02.776Z,3.80
2018-09-22T02:17:31.059Z,3.43
2018-09-22T02:19:59.221Z,3.10
2018-09-22T02:22:27.353Z,3.87
2018-09-22T02:24:55.701Z,3.20
2018-09-22T02:27:23.784Z,3.40
2018-09-22T02:29:52.070Z,3.27
2018-09-22T02:32:20.316Z,3.40
2018-09-22T02:34:48.447Z,3.33
2018-09-22T02:37:17.332Z,3.67
2018-09-22T02:39:45.511Z,3.37
2018-09-22T02:42:13.646Z,3.30
2018-09-22T02:44:41.735Z,3.23
2018-09-22T02:47:09.840Z,3.40
2018-09-22T02:49:38.079Z,3.20
2018-09-22T02:52:06.429Z,3.77
2018-09-22T02:54:34.617Z,3.67
2018-09-22T02:57:02.718Z,3.57
2018-09-22T02:59:30.879Z,3.50
2018-09-22T03:01:59.047Z,3.27
2018-09-22T03:04:27.188Z,3.03
2018-09-22T03:06:55.427Z,3.60
2018-09-22T03:09:23.602Z,3.43
2018-09-22T03:11:51.927Z,3.40
2018-09-22T03:14:20.041Z,2.93
2018-09-22T03:16:48.213Z,2.70
2018-09-22T03:19:16.359Z,3.20
2018-09-22T03:21:44.563Z,3.83
2018-09-22T03:24:12.713Z,3.50
2018-09-22T03:26:40.806Z,3.97
2018-09-22T03:29:09.105Z,3.57
2018-09-22T03:31:37.369Z,3.57
2018-09-22T03:34:05.538Z,3.10
2018-09-22T03:36:33.795Z,3.43
2018-09-22T03:39:02.342Z,3.07
2018-09-22T03:41:30.500Z,3.53
2018-09-22T03:43:58.717Z,3.80
2018-09-22T03:46:27.395Z,3.37
2018-09-22T03:48:55.497Z,3.33
2018-09-22T03:51:23.619Z,3.73
2018-09-22T03:53:51.973Z,3.70
2018-09-22T03:56:20.090Z,3.53
2018-09-22T03:58:48.260Z,3.47
2018-09-22T04:01:16.541Z,4.10
2018-09-22T04:03:44.867Z,3.80
2018-09-22T04:06:12.976Z,3.40
2018-09-22T04:08:41.079Z,3.23
2018-09-22T04:11:09.472Z,3.57
2018-09-22T04:13:37.683Z,3.73
2018-09-22T04:16:05.846Z,3.23
2018-09-22T04:18:33.888Z,3.80
2018-09-22T04:21:02.216Z,3.27
2018-09-22T04:23:30.522Z,3.87
2018-09-22T04:25:58.736Z,3.40
2018-09-22T04:28:26.872Z,2.90
2018-09-22T04:30:55.157Z,3.27
2018-09-22T04:33:23.310Z,3.77
2018-09-22T04:35:51.324Z,3.70
2018-09-22T04:38:19.570Z,3.43
2018-09-22T04:40:47.922Z,4.27
2018-09-22T04:43:16.130Z,3.17
2018-09-22T04:45:44.309Z,3.57
2018-09-22T04:48:12.600Z,3.90
2018-09-22T04:50:40.924Z,3.43
2018-09-22T04:53:09.258Z,3.93
2018-09-22T04:55:37.394Z,3.50
2018-09-22T04:58:05.811Z,3.43
2018-09-22T05:00:34.033Z,3.40
2018-09-22T05:03:02.295Z,3.70
2018-09-22T05:05:30.557Z,3.40
2018-09-22T05:07:58.828Z,3.50
2018-09-22T05:10:27.121Z,2.93
2018-09-22T05:12:55.322Z,3.73
2018-09-22T05:15:23.509Z,3.50
2018-09-22T05:17:51.684Z,3.33
2018-09-22T05:20:20.200Z,3.57
2018-09-22T05:22:48.466Z,3.13
2018-09-22T05:25:16.559Z,3.17
2018-09-22T05:27:44.900Z,3.87
2018-09-22T05:30:13.275Z,4.33
2018-09-22T05:32:41.531Z,4.03
2018-09-22T05:35:09.715Z,3.60
2018-09-22T05:37:38.043Z,4.50
2018-09-22T05:40:06.683Z,3.57
2018-09-22T05:42:34.923Z,4.13
2018-09-22T05:45:03.339Z,3.87
2018-09-22T05:47:31.674Z,3.87
2018-09-22T05:49:59.939Z,4.33
2018-09-22T05:52:28.417Z,3.93
2018-09-22T05:54:56.789Z,4.00
2018-09-22T05:57:25.137Z,3.83
2018-09-22T05:59:53.711Z,4.87
2018-09-22T06:02:22.061Z,4.07
2018-09-22T06:04:50.768Z,4.23
2018-09-22T06:07:19.267Z,4.40
2018-09-22T06:09:48.314Z,4.23
2018-09-22T06:12:17.114Z,4.13
2018-09-22T06:14:45.569Z,4.50
2018-09-22T06:17:14.265Z,5.30
2018-09-22T06:19:42.908Z,4.03
2018-09-22T06:22:11.772Z,4.40
2018-09-22T06:24:40.329Z,3.93
2018-09-22T06:27:08.877Z,4.03
2018-09-22T06:29:37.310Z,4.00
2018-09-22T06:32:05.928Z,4.33
2018-09-22T06:34:34.600Z,4.07
2018-09-22T06:37:03.342Z,3.70
2018-09-22T06:39:32.061Z,3.93
2018-09-22T06:42:00.397Z,4.00
2018-09-22T06:44:28.795Z,4.27
2018-09-22T06:46:57.003Z,4.13
2018-09-22T06:49:25.349Z,4.97
2018-09-22T06:51:53.835Z,4.07
2018-09-22T06:54:22.303Z,4.23
2018-09-22T06:56:55.757Z,3.70
2018-09-22T06:59:24.097Z,3.90
2018-09-22T07:01:52.581Z,3.67
2018-09-22T07:04:26.114Z,3.30
2018-09-22T07:10:49.989Z,3.50
2018-09-22T07:13:22.743Z,3.37
2018-09-22T07:15:55.875Z,3.50
2018-09-22T07:18:30.371Z,3.67
2018-09-22T07:26:47.700Z,3.30
2018-09-22T07:29:20.308Z,3.97
2018-09-22T07:31:53.688Z,3.67
2018-09-22T07:34:27.525Z,3.30
2018-09-22T07:36:57.143Z,3.07
2018-09-22T07:39:28.820Z,3.43
2018-09-22T07:41:58.753Z,3.40
2018-09-22T07:49:43.137Z,3.67
2018-09-22T07:58:35.914Z,3.07
2018-09-22T08:01:06.636Z,3.60
2018-09-22T08:03:37.451Z,3.80
2018-09-22T08:06:09.396Z,3.27
2018-09-22T08:08:38.145Z,3.13
2018-09-22T08:11:06.512Z,3.67
2018-09-22T08:13:34.854Z,3.30
2018-09-22T08:16:03.309Z,3.13
2018-09-22T08:18:31.980Z,4.10
2018-09-22T08:21:01.055Z,4.07
2018-09-22T08:23:29.694Z,3.90
2018-09-22T08:25:58.461Z,4.97
2018-09-22T08:28:27.286Z,5.17
2018-09-22T08:30:55.795Z,4.03
2018-09-22T08:33:24.525Z,4.17
2018-09-22T08:35:53.043Z,4.00
2018-09-22T08:38:21.359Z,4.57
2018-09-22T08:40:49.738Z,3.73
2018-09-22T08:43:18.130Z,3.50
2018-09-22T08:45:46.321Z,3.03
2018-09-22T08:48:14.805Z,3.90
2018-09-22T08:50:43.304Z,3.43
2018-09-22T08:53:11.827Z,4.00
2018-09-22T08:55:40.228Z,3.63
2018-09-22T08:58:08.544Z,3.27
2018-09-22T09:00:37.009Z,3.33
2018-09-22T09:03:05.309Z,4.10
2018-09-22T09:05:33.712Z,3.10
2018-09-22T09:08:02.147Z,3.40
2018-09-22T09:10:30.870Z,4.47
2018-09-22T09:12:59.867Z,3.70
2018-09-22T09:15:28.399Z,3.13
2018-09-22T09:17:56.853Z,3.53
2018-09-22T09:20:25.550Z,3.13
2018-09-22T09:22:53.958Z,3.58
2018-09-22T09:25:22.514Z,3.20
2018-09-22T09:27:51.368Z,3.58
2018-09-22T09:30:20.636Z,3.20
2018-09-22T09:32:50.015Z,4.55
2018-09-22T09:35:18.685Z,3.47
2018-09-22T09:37:47.153Z,3.60
2018-09-22T09:40:15.651Z,3.17
2018-09-22T09:42:44.064Z,3.90
2018-09-22T09:45:12.727Z,3.02
2018-09-22T09:47:41.149Z,2.83
2018-09-22T09:50:09.711Z,2.72
2018-09-22T09:52:38.503Z,3.05
2018-09-22T09:55:07.487Z,2.95
2018-09-22T09:57:36.109Z,2.70
2018-09-22T10:00:04.838Z,3.55
2018-09-22T10:02:33.352Z,3.00
2018-09-22T10:05:01.768Z,3.58
2018-09-22T10:07:31.364Z,3.25
2018-09-22T10:10:00.958Z,4.00
2018-09-22T10:12:29.687Z,3.47
2018-09-22T10:14:58.747Z,3.52
2018-09-22T10:17:27.873Z,2.85
2018-09-22T10:19:56.553Z,4.10
2018-09-22T10:22:24.929Z,7.60
2018-09-22T10:24:53.248Z,3.17
2018-09-22T10:27:21.791Z,2.85
2018-09-22T10:29:50.491Z,75.75
2018-09-22T10:32:18.760Z,115.57
2018-09-22T10:34:47.196Z,59.58
2018-09-22T10:37:15.546Z,4.53
2018-09-22T10:39:43.820Z,3.02
2018-09-22T10:42:12.458Z,5.75
2018-09-22T10:44:40.739Z,11.20
2018-09-22T10:47:09.138Z,3.05
2018-09-22T10:49:37.595Z,3.20
2018-09-22T10:52:06.115Z,3.35
2018-09-22T10:54:34.845Z,15.30
2018-09-22T10:57:03.106Z,3.65
2018-09-22T10:59:31.348Z,3.30
2018-09-22T11:01:59.782Z,3.15
2018-09-22T11:04:28.470Z,3.62
2018-09-22T11:06:56.808Z,3.50
2018-09-22T11:09:24.972Z,3.62
2018-09-22T11:11:53.280Z,3.20
2018-09-22T11:14:21.477Z,3.85
2018-09-22T11:16:49.602Z,4.00
2018-09-22T11:19:18.171Z,3.95
2018-09-22T11:21:46.570Z,4.05
2018-09-22T11:24:15.154Z,4.05
2018-09-22T11:26:44.059Z,4.20
2018-09-22T11:29:16.249Z,2.83
2018-09-22T11:31:46.766Z,2.47
2018-09-22T11:34:17.405Z,3.47
2018-09-22T11:36:46.104Z,3.17
2018-09-22T11:39:14.613Z,3.15
2018-09-22T11:41:44.709Z,3.47
2018-09-22T11:44:14.607Z,3.02
2018-09-22T11:46:43.548Z,3.05
2018-09-22T11:49:12.152Z,3.60
2018-09-22T11:51:40.671Z,3.20
2018-09-22T11:54:09.404Z,2.92
2018-09-22T11:56:38.023Z,2.52
2018-09-22T11:59:07.307Z,3.33
2018-09-22T12:01:36.764Z,3.35
2018-09-22T12:04:05.273Z,2.95
2018-09-22T12:06:35.612Z,2.67
2018-09-22T12:09:06.327Z,2.92
2018-09-22T12:11:35.075Z,3.05
2018-09-22T12:14:03.528Z,3.02
2018-09-22T12:16:32.148Z,3.33
2018-09-22T12:19:01.087Z,2.83
2018-09-22T12:21:29.561Z,2.77
2018-09-22T12:23:58.167Z,4.25
2018-09-22T12:26:26.972Z,2.75
2018-09-22T12:28:55.937Z,3.33
2018-09-22T12:31:24.618Z,2.90
2018-09-22T12:33:53.569Z,3.87
2018-09-22T12:36:24.278Z,3.47
2018-09-22T12:38:52.808Z,3.22
2018-09-22T12:41:22.623Z,3.60
2018-09-22T12:43:51.230Z,2.95
2018-09-22T12:46:19.956Z,2.98
2018-09-22T12:48:48.340Z,2.83
2018-09-22T12:51:16.995Z,2.70
2018-09-22T12:53:45.557Z,3.00
2018-09-22T12:56:13.974Z,2.62
2018-09-22T12:58:42.533Z,4.85
2018-09-22T13:01:11.225Z,3.30
2018-09-22T13:03:40.282Z,2.95
2018-09-22T13:06:09.532Z,4.67
2018-09-22T13:08:38.600Z,3.40
2018-09-22T13:11:08.440Z,3.42
2018-09-22T13:13:37.530Z,3.45
2018-09-22T13:16:13.372Z,3.20
2018-09-22T13:18:48.395Z,2.55
2018-09-22T13:21:20.327Z,2.47
2018-09-22T13:23:49.314Z,2.47
2018-09-22T13:26:18.705Z,3.08
2018-09-22T13:28:49.264Z,2.30
2018-09-22T13:31:21.368Z,3.20
2018-09-22T13:33:51.478Z,2.67
2018-09-22T13:36:20.350Z,3.37
2018-09-22T13:38:49.236Z,3.35
2018-09-22T13:41:19.209Z,2.42
2018-09-22T13:43:47.899Z,2.60
2018-09-22T13:46:18.688Z,2.92
2018-09-22T13:48:47.587Z,3.00
2018-09-22T13:51:16.604Z,3.65
2018-09-22T13:53:45.493Z,2.80
2018-09-22T13:56:14.242Z,2.60
2018-09-22T13:58:44.874Z,2.60
2018-09-22T14:01:16.870Z,2.40
2018-09-22T14:03:49.318Z,2.67
2018-09-22T14:06:20.822Z,2.60
2018-09-22T14:08:54.073Z,3.52
2018-09-22T14:11:25.753Z,2.65
2018-09-22T14:13:57.934Z,3.00
2018-09-22T14:16:27.234Z,3.62
2018-09-22T14:18:59.537Z,3.40
2018-09-22T14:21:28.560Z,3.30
2018-09-22T14:23:57.927Z,2.83
2018-09-22T14:26:28.844Z,2.58
2018-09-22T14:28:58.863Z,2.77
2018-09-22T14:31:27.838Z,3.00
2018-09-22T14:33:56.569Z,2.87
2018-09-22T14:36:25.060Z,3.22
2018-09-22T14:38:56.342Z,4.05
2018-09-22T14:41:25.683Z,3.40
2018-09-22T14:43:54.763Z,5.53
2018-09-22T14:46:23.883Z,4.33
2018-09-22T14:48:55.354Z,3.30
2018-09-22T14:51:24.136Z,3.92
2018-09-22T14:53:53.949Z,3.45
2018-09-22T14:56:23.717Z,3.67
2018-09-22T14:58:58.072Z,4.15
2018-09-22T15:01:40.102Z,4.03
2018-09-22T15:04:08.671Z,3.55
2018-09-22T15:06:43.147Z,4.65
2018-09-22T15:09:12.194Z,3.72
2018-09-22T15:11:48.033Z,3.60
2018-09-22T15:14:22.689Z,6.80
2018-09-22T15:16:53.212Z,5.05
2018-09-22T15:19:29.120Z,4.72
2018-09-22T15:22:07.037Z,5.00
2018-09-22T15:27:19.353Z,4.20
2018-09-22T15:29:52.795Z,3.60
2018-09-22T15:32:33.134Z,3.70
2018-09-22T15:35:05.918Z,3.83
2018-09-22T15:37:46.378Z,4.08
2018-09-22T15:40:20.192Z,3.30
2018-09-22T15:42:50.739Z,3.67
2018-09-22T15:45:26.255Z,3.50
2018-09-22T15:48:07.412Z,3.87
2018-09-22T15:50:51.999Z,3.22
2018-09-22T15:53:23.677Z,3.72
2018-09-22T15:55:57.218Z,3.17
2018-09-22T15:58:28.180Z,3.53
2018-09-22T16:00:59.572Z,3.10
2018-09-22T16:03:28.686Z,3.90
2018-09-22T16:05:57.362Z,3.12
2018-09-22T16:08:26.028Z,3.22
2018-09-22T16:10:56.426Z,3.53
2018-09-22T16:13:25.918Z,3.27
2018-09-22T16:15:55.361Z,3.43
2018-09-22T16:18:24.688Z,3.77
2018-09-22T16:20:53.852Z,3.87
2018-09-22T16:23:23.243Z,4.20
2018-09-22T16:25:53.444Z,3.80
2018-09-22T16:28:23.229Z,4.63
2018-09-22T16:30:54.418Z,3.70
2018-09-22T16:33:27.135Z,11.63
2018-09-22T16:35:56.112Z,3.47
2018-09-22T16:38:24.540Z,3.63
2018-09-22T16:40:53.147Z,4.17
2018-09-22T16:43:21.780Z,4.13
2018-09-22T16:45:50.239Z,3.87
2018-09-22T16:48:21.180Z,4.30
2018-09-22T16:50:50.757Z,4.13
2018-09-22T16:53:19.906Z,4.77
2018-09-22T16:55:48.423Z,4.07
2018-09-22T16:58:17.733Z,4.17
2018-09-22T17:00:47.170Z,4.63
2018-09-22T17:03:16.915Z,3.87
2018-09-22T17:05:45.785Z,4.37
2018-09-22T17:08:14.527Z,4.63
2018-09-22T17:10:47.181Z,4.17
2018-09-22T17:13:16.163Z,5.07
2018-09-22T17:15:44.611Z,4.60
2018-09-22T17:18:13.262Z,4.37
2018-09-22T17:20:41.936Z,4.63
2018-09-22T17:23:10.510Z,4.33
2018-09-22T17:25:39.284Z,4.43
2018-09-22T17:28:07.922Z,4.43
2018-09-22T17:30:36.530Z,4.73
2018-09-22T17:33:05.400Z,4.53
2018-09-22T17:35:34.082Z,12.47
2018-09-22T17:38:02.786Z,5.00
2018-09-22T17:40:31.755Z,5.00
2018-09-22T17:43:00.430Z,4.97
2018-09-22T17:45:29.303Z,4.83
2018-09-22T17:47:58.827Z,4.57
2018-09-22T17:50:27.690Z,5.20
2018-09-22T17:52:56.686Z,5.20
2018-09-22T17:55:25.737Z,5.30
2018-09-22T17:57:55.079Z,5.37
2018-09-22T18:00:24.453Z,5.00
2018-09-22T18:02:53.804Z,5.30
2018-09-22T18:05:23.813Z,5.00
2018-09-22T18:07:52.810Z,5.10
2018-09-22T18:10:23.741Z,5.00
2018-09-22T18:12:52.700Z,4.67
2018-09-22T18:15:21.617Z,4.90
2018-09-22T18:17:50.479Z,4.80
2018-09-22T18:20:19.504Z,5.67
2018-09-22T18:22:48.304Z,5.40
2018-09-22T18:25:17.023Z,4.87
2018-09-22T18:27:45.788Z,5.10
2018-09-22T18:30:15.075Z,4.80
2018-09-22T18:32:44.249Z,6.13
2018-09-22T18:35:14.074Z,5.10
2018-09-22T18:37:43.281Z,4.70
2018-09-22T18:40:12.016Z,4.67
2018-09-22T18:42:42.152Z,5.30
2018-09-22T18:45:10.988Z,5.50
2018-09-22T18:47:41.244Z,4.97
2018-09-22T18:50:12.365Z,4.97
2018-09-22T18:52:42.697Z,4.80
2018-09-22T18:55:12.724Z,5.00
2018-09-22T18:57:43.283Z,5.70
2018-09-22T19:00:12.917Z,5.47
2018-09-22T19:02:43.173Z,5.37
2018-09-22T19:05:12.575Z,6.03
2018-09-22T19:07:41.738Z,5.73
2018-09-22T19:10:10.506Z,5.77
2018-09-22T19:12:39.383Z,5.60
2018-09-22T19:15:15.761Z,5.67
2018-09-22T19:17:50.518Z,5.87
2018-09-22T19:20:25.149Z,6.43
2018-09-22T19:22:57.028Z,5.67
2018-09-22T19:25:27.724Z,5.27
2018-09-22T19:30:51.327Z,5.00
2018-09-22T19:33:28.949Z,6.27
2018-09-22T19:36:08.378Z,5.47
2018-09-22T19:38:41.195Z,5.93
2018-09-22T19:41:17.529Z,5.53
2018-09-22T19:43:54.014Z,5.33
2018-09-22T19:46:34.289Z,5.47
2018-09-22T19:49:07.259Z,5.77
2018-09-22T19:51:42.474Z,5.70
2018-09-22T19:54:11.103Z,5.03
2018-09-22T19:56:40.338Z,5.47
2018-09-22T19:59:08.880Z,6.00
2018-09-22T20:01:37.534Z,6.37
2018-09-22T20:04:06.270Z,6.13
2018-09-22T20:06:35.518Z,6.70
2018-09-22T20:09:04.470Z,6.70
2018-09-22T20:11:34.139Z,7.20
2018-09-22T20:14:03.663Z,6.50
2018-09-22T20:16:32.296Z,6.23
2018-09-22T20:19:00.768Z,6.40
2018-09-22T20:21:29.238Z,6.63
2018-09-22T20:23:57.863Z,6.07
2018-09-22T20:26:26.409Z,8.37
2018-09-22T20:28:54.949Z,6.57
2018-09-22T20:31:23.285Z,6.77
2018-09-22T20:33:51.613Z,7.20
2018-09-22T20:36:20.217Z,6.17
2018-09-22T20:38:48.642Z,6.83
2018-09-22T20:41:17.932Z,8.20
2018-09-22T20:43:46.416Z,7.13
2018-09-22T20:46:15.034Z,8.67
2018-09-22T20:48:43.354Z,7.40
2018-09-22T20:51:13.068Z,9.33
2018-09-22T20:53:41.891Z,7.90
2018-09-22T20:56:10.383Z,10.27
2018-09-22T20:58:38.925Z,8.73
2018-09-22T21:01:07.824Z,9.07
2018-09-22T21:03:36.457Z,9.77
2018-09-22T21:06:05.094Z,10.07
2018-09-22T21:08:33.435Z,8.77
2018-09-22T21:11:01.839Z,9.20
2018-09-22T21:13:30.612Z,10.27
2018-09-22T21:15:59.052Z,10.70
2018-09-22T21:18:27.562Z,10.00
2018-09-22T21:20:56.044Z,8.93
2018-09-22T21:23:24.575Z,10.50
2018-09-22T21:25:53.013Z,10.00
2018-09-22T21:28:21.595Z,9.63
2018-09-22T21:30:50.019Z,9.20
2018-09-22T21:33:18.413Z,10.47
2018-09-22T21:35:47.048Z,10.00
2018-09-22T21:38:15.460Z,10.07
2018-09-22T21:40:43.963Z,10.03
2018-09-22T21:43:12.301Z,9.83
2018-09-22T21:45:40.778Z,8.63
2018-09-22T21:48:09.182Z,8.83
2018-09-22T21:50:37.484Z,9.40
2018-09-22T21:53:05.911Z,9.67
2018-09-22T21:55:34.443Z,9.97
2018-09-22T21:58:02.891Z,10.33
2018-09-22T22:00:31.411Z,10.00
2018-09-22T22:03:00.020Z,9.57
2018-09-22T22:05:28.506Z,10.63
2018-09-22T22:07:56.907Z,9.87
2018-09-22T22:10:25.320Z,10.53
2018-09-22T22:12:53.726Z,9.57
2018-09-22T22:15:22.062Z,10.50
2018-09-22T22:17:50.458Z,9.23
2018-09-22T22:20:18.832Z,9.37
2018-09-22T22:22:47.404Z,10.60
2018-09-22T22:25:16.148Z,10.87
2018-09-22T22:27:44.619Z,9.53
2018-09-22T22:30:12.988Z,10.13
2018-09-22T22:32:41.667Z,10.77
2018-09-22T22:35:10.077Z,10.57
2018-09-22T22:37:38.299Z,10.37
2018-09-22T22:40:06.528Z,9.53
2018-09-22T22:42:34.631Z,11.07
2018-09-22T22:45:06.432Z,10.37
2018-09-22T22:52:44.724Z,11.13
2018-09-22T22:55:12.960Z,10.97
2018-09-22T22:57:41.146Z,9.83
2018-09-22T23:00:09.396Z,10.97
2018-09-22T23:02:37.793Z,10.63
2018-09-22T23:05:06.004Z,10.57
2018-09-22T23:07:34.150Z,11.83
2018-09-22T23:10:02.527Z,11.97
2018-09-22T23:12:30.736Z,11.27
2018-09-22T23:14:58.796Z,11.50
2018-09-22T23:17:26.902Z,10.93
2018-09-22T23:19:54.948Z,12.13
2018-09-22T23:22:23.171Z,13.37
2018-09-22T23:24:51.320Z,11.70
2018-09-22T23:27:19.421Z,12.13
2018-09-22T23:29:47.504Z,11.90
2018-09-22T23:32:15.729Z,12.50
2018-09-22T23:34:43.811Z,11.27
2018-09-22T23:37:11.862Z,11.83
2018-09-22T23:39:39.839Z,11.73
2018-09-22T23:42:08.003Z,12.53
2018-09-22T23:44:36.108Z,13.13
2018-09-22T23:47:04.293Z,13.10
2018-09-22T23:49:32.289Z,11.33
2018-09-22T23:52:00.485Z,13.37
2018-09-22T23:54:28.504Z,12.97
2018-09-22T23:56:56.497Z,12.80
2018-09-22T23:59:24.586Z,13.17
